TimeCST,TemperatureF,Dew PointF,Humidity,Sea Level PressureIn,VisibilityMPH,Wind Direction,Wind SpeedMPH,Gust SpeedMPH,PrecipitationIn,Events,Conditions,WindDirDegrees,DateUTC
12:15 AM,12.2,1.4,62,30.22,10.0,West,4.6,-,N/A,,Overcast,270,2013-02-16 06:15:00
12:35 AM,12.2,1.4,62,30.22,10.0,WSW,4.6,-,N/A,,Overcast,250,2013-02-16 06:35:00
12:55 AM,12.2,3.2,67,30.21,10.0,West,4.6,-,N/A,,Overcast,260,2013-02-16 06:55:00
1:15 AM,12.2,3.2,67,30.20,10.0,Calm,Calm,-,N/A,,Overcast,0,2013-02-16 07:15:00
1:35 AM,12.2,3.2,67,30.20,10.0,Calm,Calm,-,N/A,,Overcast,0,2013-02-16 07:35:00
1:55 AM,12.2,3.2,67,30.19,10.0,Calm,Calm,-,N/A,,Overcast,0,2013-02-16 07:55:00
2:15 AM,10.4,3.2,73,30.19,10.0,Calm,Calm,-,N/A,,Overcast,0,2013-02-16 08:15:00
2:35 AM,12.2,3.2,67,30.19,10.0,Calm,Calm,-,N/A,,Overcast,0,2013-02-16 08:35:00
2:55 AM,12.2,3.2,67,30.18,10.0,Calm,Calm,-,N/A,,Overcast,0,2013-02-16 08:55:00
3:15 AM,10.4,3.2,73,30.18,10.0,WSW,3.5,-,N/A,,Overcast,240,2013-02-16 09:15:00
3:35 AM,10.4,5.0,79,30.18,10.0,West,3.5,-,N/A,,Overcast,260,2013-02-16 09:35:00
3:55 AM,10.4,3.2,73,30.18,10.0,West,6.9,-,N/A,,Overcast,270,2013-02-16 09:55:00
4:15 AM,10.4,3.2,73,30.18,10.0,West,4.6,-,N/A,,Overcast,270,2013-02-16 10:15:00
4:35 AM,10.4,3.2,73,30.17,10.0,West,4.6,-,N/A,,Overcast,260,2013-02-16 10:35:00
5:15 AM,8.6,3.2,79,30.17,10.0,West,3.5,-,N/A,,Overcast,260,2013-02-16 11:15:00
5:35 AM,8.6,3.2,79,30.17,10.0,West,3.5,-,N/A,,Overcast,270,2013-02-16 11:35:00
6:15 AM,8.6,3.2,79,30.17,10.0,WNW,3.5,-,N/A,,Overcast,290,2013-02-16 12:15:00
6:35 AM,8.6,3.2,79,30.17,10.0,Calm,Calm,-,N/A,,Overcast,0,2013-02-16 12:35:00
6:55 AM,8.6,3.2,79,30.18,10.0,Calm,Calm,-,N/A,,Overcast,0,2013-02-16 12:55:00
7:15 AM,6.8,1.4,79,30.19,10.0,Calm,Calm,-,N/A,,Mostly Cloudy,0,2013-02-16 13:15:00
7:35 AM,6.8,1.4,79,30.19,10.0,Calm,Calm,-,N/A,,Scattered Clouds,0,2013-02-16 13:35:00
7:55 AM,8.6,1.4,73,30.19,10.0,Calm,Calm,-,N/A,,Clear,0,2013-02-16 13:55:00
8:15 AM,8.6,1.4,73,30.20,10.0,Calm,Calm,-,N/A,,Clear,0,2013-02-16 14:15:00
8:35 AM,8.6,1.4,73,30.20,10.0,Calm,Calm,-,N/A,,Clear,0,2013-02-16 14:35:00
8:55 AM,10.4,3.2,73,30.20,10.0,Calm,Calm,-,N/A,,Clear,0,2013-02-16 14:55:00
9:15 AM,10.4,3.2,73,30.20,10.0,Calm,Calm,-,N/A,,Clear,0,2013-02-16 15:15:00
9:35 AM,12.2,3.2,67,30.19,10.0,NNE,3.5,-,N/A,,Clear,30,2013-02-16 15:35:00
12:15 PM,15.8,1.4,53,30.17,10.0,WNW,6.9,-,N/A,,Mostly Cloudy,290,2013-02-16 18:15:00
12:35 PM,17.6,1.4,49,30.17,10.0,West,5.8,-,N/A,,Scattered Clouds,270,2013-02-16 18:35:00
12:55 PM,17.6,1.4,49,30.16,10.0,WNW,4.6,-,N/A,,Scattered Clouds,290,2013-02-16 18:55:00
1:15 PM,17.6,1.4,49,30.15,10.0,NW,4.6,-,N/A,,Scattered Clouds,310,2013-02-16 19:15:00
1:35 PM,17.6,1.4,49,30.15,10.0,West,4.6,-,N/A,,Mostly Cloudy,270,2013-02-16 19:35:00
1:55 PM,17.6,1.4,49,30.15,10.0,NW,5.8,-,N/A,,Mostly Cloudy,310,2013-02-16 19:55:00
2:15 PM,19.4,1.4,46,30.15,10.0,North,6.9,-,N/A,,Scattered Clouds,350,2013-02-16 20:15:00
2:35 PM,19.4,1.4,46,30.15,10.0,NNW,6.9,-,N/A,,Clear,330,2013-02-16 20:35:00
2:55 PM,19.4,1.4,46,30.15,10.0,NNW,3.5,-,N/A,,Clear,330,2013-02-16 20:55:00
3:15 PM,19.4,1.4,46,30.15,10.0,WNW,3.5,-,N/A,,Scattered Clouds,290,2013-02-16 21:15:00
3:35 PM,17.6,1.4,49,30.15,10.0,North,6.9,-,N/A,,Clear,360,2013-02-16 21:35:00
3:55 PM,19.4,1.4,46,30.15,10.0,NW,6.9,-,N/A,,Clear,310,2013-02-16 21:55:00
4:15 PM,17.6,1.4,49,30.15,10.0,North,4.6,-,N/A,,Clear,350,2013-02-16 22:15:00
4:35 PM,17.6,1.4,49,30.15,10.0,North,8.1,-,N/A,,Clear,350,2013-02-16 22:35:00
4:55 PM,17.6,1.4,49,30.16,10.0,North,5.8,-,N/A,,Clear,350,2013-02-16 22:55:00
5:15 PM,15.8,-0.4,49,30.17,10.0,North,4.6,-,N/A,,Clear,360,2013-02-16 23:15:00
5:35 PM,14.0,-0.4,53,30.17,10.0,North,4.6,-,N/A,,Clear,360,2013-02-16 23:35:00
5:55 PM,14.0,-0.4,53,30.17,10.0,North,4.6,-,N/A,,Clear,350,2013-02-16 23:55:00
6:15 PM,12.2,1.4,62,30.18,10.0,North,3.5,-,N/A,,Clear,350,2013-02-17 00:15:00
6:35 PM,10.4,1.4,67,30.18,10.0,Calm,Calm,-,N/A,,Clear,0,2013-02-17 00:35:00
6:55 PM,8.6,-0.4,67,30.18,10.0,Calm,Calm,-,N/A,,Clear,0,2013-02-17 00:55:00
7:15 PM,5.0,-0.4,78,30.18,10.0,Calm,Calm,-,N/A,,Clear,0,2013-02-17 01:15:00
7:35 PM,5.0,-0.4,78,30.17,10.0,Calm,Calm,-,N/A,,Clear,0,2013-02-17 01:35:00
7:55 PM,3.2,-0.4,85,30.17,10.0,Calm,Calm,-,N/A,,Clear,0,2013-02-17 01:55:00
8:15 PM,3.2,-2.2,78,30.18,10.0,East,3.5,-,N/A,,Clear,90,2013-02-17 02:15:00
8:35 PM,3.2,-2.2,78,30.18,10.0,Calm,Calm,-,N/A,,Clear,0,2013-02-17 02:35:00
8:55 PM,1.4,-4.0,78,30.18,10.0,Calm,Calm,-,N/A,,Clear,0,2013-02-17 02:55:00
9:15 PM,1.4,-4.0,78,30.18,10.0,Calm,Calm,-,N/A,,Clear,0,2013-02-17 03:15:00
9:35 PM,-0.4,-4.0,85,30.18,10.0,Calm,Calm,-,N/A,,Clear,0,2013-02-17 03:35:00
9:55 PM,-0.4,-4.0,85,30.18,10.0,Calm,Calm,-,N/A,,Clear,0,2013-02-17 03:55:00
10:15 PM,-2.2,-5.8,85,30.18,10.0,Calm,Calm,-,N/A,,Clear,0,2013-02-17 04:15:00
10:35 PM,-2.2,-5.8,85,30.18,10.0,Calm,Calm,-,N/A,,Clear,0,2013-02-17 04:35:00
10:55 PM,-4.0,-5.8,92,30.18,10.0,Calm,Calm,-,N/A,,Clear,0,2013-02-17 04:55:00
11:15 PM,-4.0,-7.6,85,30.17,10.0,Calm,Calm,-,N/A,,Clear,0,2013-02-17 05:15:00
11:35 PM,-4.0,-7.6,85,30.17,10.0,Calm,Calm,-,N/A,,Clear,0,2013-02-17 05:35:00
11:55 PM,-4.0,-7.6,85,30.16,10.0,Calm,Calm,-,N/A,,Clear,0,2013-02-17 05:55:00